sensor_id;sensor_type;location;lat;lon;timestamp;P1;durP1;ratioP1;P2;durP2;ratioP2
76714;SDS011;65644;44.990;20.288;2023-09-19T00:00:36;6.50;;;3.33;;
76714;SDS011;65644;44.990;20.288;2023-09-19T00:03:02;4.30;;;2.80;;
76714;SDS011;65644;44.990;20.288;2023-09-19T00:05:29;5.75;;;3.40;;
76714;SDS011;65644;44.990;20.288;2023-09-19T00:07:57;6.70;;;3.00;;
76714;SDS011;65644;44.990;20.288;2023-09-19T00:10:27;4.07;;;3.05;;
76714;SDS011;65644;44.990;20.288;2023-09-19T00:12:56;5.70;;;3.05;;
76714;SDS011;65644;44.990;20.288;2023-09-19T00:15:23;5.90;;;3.35;;
76714;SDS011;65644;44.990;20.288;2023-09-19T00:17:49;3.47;;;2.75;;
76714;SDS011;65644;44.990;20.288;2023-09-19T00:20:19;7.38;;;3.67;;
76714;SDS011;65644;44.990;20.288;2023-09-19T00:22:48;6.07;;;2.95;;
76714;SDS011;65644;44.990;20.288;2023-09-19T00:25:14;4.50;;;3.05;;
76714;SDS011;65644;44.990;20.288;2023-09-19T00:27:41;4.63;;;3.10;;
76714;SDS011;65644;44.990;20.288;2023-09-19T00:30:11;4.20;;;2.80;;
76714;SDS011;65644;44.990;20.288;2023-09-19T00:32:42;8.13;;;3.05;;
76714;SDS011;65644;44.990;20.288;2023-09-19T00:35:09;5.78;;;2.90;;
76714;SDS011;65644;44.990;20.288;2023-09-19T00:37:35;8.75;;;2.90;;
76714;SDS011;65644;44.990;20.288;2023-09-19T00:40:03;4.50;;;2.80;;
76714;SDS011;65644;44.990;20.288;2023-09-19T00:42:31;4.28;;;2.97;;
76714;SDS011;65644;44.990;20.288;2023-09-19T00:44:58;6.93;;;3.28;;
76714;SDS011;65644;44.990;20.288;2023-09-19T00:47:27;3.03;;;2.67;;
76714;SDS011;65644;44.990;20.288;2023-09-19T00:49:54;5.38;;;3.25;;
76714;SDS011;65644;44.990;20.288;2023-09-19T00:52:21;5.40;;;3.00;;
76714;SDS011;65644;44.990;20.288;2023-09-19T00:54:49;6.15;;;3.10;;
76714;SDS011;65644;44.990;20.288;2023-09-19T00:57:15;5.53;;;3.35;;
76714;SDS011;65644;44.990;20.288;2023-09-19T00:59:42;3.90;;;3.03;;
76714;SDS011;65644;44.990;20.288;2023-09-19T01:02:08;4.97;;;3.33;;
76714;SDS011;65644;44.990;20.288;2023-09-19T01:04:35;7.60;;;2.70;;
76714;SDS011;65644;44.990;20.288;2023-09-19T01:07:02;4.60;;;3.03;;
76714;SDS011;65644;44.990;20.288;2023-09-19T01:09:28;5.38;;;3.35;;
76714;SDS011;65644;44.990;20.288;2023-09-19T01:11:57;6.15;;;3.03;;
76714;SDS011;65644;44.990;20.288;2023-09-19T01:16:54;4.88;;;3.17;;
76714;SDS011;65644;44.990;20.288;2023-09-19T01:19:35;4.47;;;3.05;;
76714;SDS011;65644;44.990;20.288;2023-09-19T01:29:45;2.88;;;2.60;;
76714;SDS011;65644;44.990;20.288;2023-09-19T01:32:13;3.40;;;3.10;;
76714;SDS011;65644;44.990;20.288;2023-09-19T01:37:17;4.00;;;2.45;;
76714;SDS011;65644;44.990;20.288;2023-09-19T01:39:48;5.10;;;2.70;;
76714;SDS011;65644;44.990;20.288;2023-09-19T01:49:53;4.10;;;2.88;;
76714;SDS011;65644;44.990;20.288;2023-09-19T01:52:20;5.63;;;2.65;;
76714;SDS011;65644;44.990;20.288;2023-09-19T01:54:51;3.08;;;2.38;;
76714;SDS011;65644;44.990;20.288;2023-09-19T01:57:27;3.22;;;2.60;;
76714;SDS011;65644;44.990;20.288;2023-09-19T01:59:57;5.63;;;3.15;;
76714;SDS011;65644;44.990;20.288;2023-09-19T02:02:25;4.40;;;2.60;;
76714;SDS011;65644;44.990;20.288;2023-09-19T02:04:51;4.68;;;2.58;;
76714;SDS011;65644;44.990;20.288;2023-09-19T02:07:17;5.80;;;3.13;;
76714;SDS011;65644;44.990;20.288;2023-09-19T02:09:43;4.07;;;2.90;;
76714;SDS011;65644;44.990;20.288;2023-09-19T02:12:10;3.63;;;2.70;;
76714;SDS011;65644;44.990;20.288;2023-09-19T02:14:36;5.18;;;2.70;;
76714;SDS011;65644;44.990;20.288;2023-09-19T02:17:03;5.10;;;3.40;;
76714;SDS011;65644;44.990;20.288;2023-09-19T02:19:34;3.55;;;2.95;;
76714;SDS011;65644;44.990;20.288;2023-09-19T02:22:02;5.38;;;2.90;;
76714;SDS011;65644;44.990;20.288;2023-09-19T02:24:33;3.42;;;2.67;;
76714;SDS011;65644;44.990;20.288;2023-09-19T02:27:00;5.47;;;2.72;;
76714;SDS011;65644;44.990;20.288;2023-09-19T02:29:29;3.65;;;2.95;;
76714;SDS011;65644;44.990;20.288;2023-09-19T02:31:55;5.82;;;3.72;;
76714;SDS011;65644;44.990;20.288;2023-09-19T02:34:22;5.15;;;3.05;;
76714;SDS011;65644;44.990;20.288;2023-09-19T02:36:48;3.85;;;3.17;;
76714;SDS011;65644;44.990;20.288;2023-09-19T02:39:14;4.60;;;2.97;;
76714;SDS011;65644;44.990;20.288;2023-09-19T02:41:40;5.53;;;3.10;;
76714;SDS011;65644;44.990;20.288;2023-09-19T02:44:07;6.22;;;3.80;;
76714;SDS011;65644;44.990;20.288;2023-09-19T02:46:33;5.85;;;3.70;;
76714;SDS011;65644;44.990;20.288;2023-09-19T02:49:01;5.50;;;3.78;;
76714;SDS011;65644;44.990;20.288;2023-09-19T02:51:30;4.57;;;3.30;;
76714;SDS011;65644;44.990;20.288;2023-09-19T02:53:56;5.28;;;3.50;;
76714;SDS011;65644;44.990;20.288;2023-09-19T02:56:22;5.32;;;4.30;;
76714;SDS011;65644;44.990;20.288;2023-09-19T02:58:49;4.82;;;4.13;;
76714;SDS011;65644;44.990;20.288;2023-09-19T03:01:16;5.07;;;4.10;;
76714;SDS011;65644;44.990;20.288;2023-09-19T03:03:44;5.25;;;3.38;;
76714;SDS011;65644;44.990;20.288;2023-09-19T03:06:10;4.18;;;3.65;;
76714;SDS011;65644;44.990;20.288;2023-09-19T03:08:38;5.07;;;3.85;;
76714;SDS011;65644;44.990;20.288;2023-09-19T03:11:07;4.25;;;3.50;;
76714;SDS011;65644;44.990;20.288;2023-09-19T03:13:36;4.43;;;3.80;;
76714;SDS011;65644;44.990;20.288;2023-09-19T03:16:03;5.53;;;3.28;;
76714;SDS011;65644;44.990;20.288;2023-09-19T03:18:36;7.78;;;4.05;;
76714;SDS011;65644;44.990;20.288;2023-09-19T03:21:02;5.88;;;3.75;;
76714;SDS011;65644;44.990;20.288;2023-09-19T03:23:28;8.18;;;4.07;;
76714;SDS011;65644;44.990;20.288;2023-09-19T03:25:54;4.10;;;3.65;;
76714;SDS011;65644;44.990;20.288;2023-09-19T03:28:21;6.80;;;3.63;;
76714;SDS011;65644;44.990;20.288;2023-09-19T03:30:58;6.97;;;3.80;;
76714;SDS011;65644;44.990;20.288;2023-09-19T03:33:24;4.38;;;3.60;;
76714;SDS011;65644;44.990;20.288;2023-09-19T03:35:54;5.40;;;3.63;;
76714;SDS011;65644;44.990;20.288;2023-09-19T03:38:20;7.20;;;4.20;;
76714;SDS011;65644;44.990;20.288;2023-09-19T03:40:47;7.05;;;3.83;;
76714;SDS011;65644;44.990;20.288;2023-09-19T03:43:14;5.65;;;4.18;;
76714;SDS011;65644;44.990;20.288;2023-09-19T03:45:40;6.65;;;4.05;;
76714;SDS011;65644;44.990;20.288;2023-09-19T03:48:09;5.05;;;3.58;;
76714;SDS011;65644;44.990;20.288;2023-09-19T03:50:35;4.38;;;3.80;;
76714;SDS011;65644;44.990;20.288;2023-09-19T03:53:01;6.35;;;4.78;;
76714;SDS011;65644;44.990;20.288;2023-09-19T03:55:28;5.95;;;3.80;;
76714;SDS011;65644;44.990;20.288;2023-09-19T03:57:57;6.85;;;3.83;;
76714;SDS011;65644;44.990;20.288;2023-09-19T04:00:23;7.20;;;4.03;;
76714;SDS011;65644;44.990;20.288;2023-09-19T04:02:51;5.80;;;3.80;;
76714;SDS011;65644;44.990;20.288;2023-09-19T04:05:18;5.18;;;3.72;;
76714;SDS011;65644;44.990;20.288;2023-09-19T04:07:44;4.45;;;3.67;;
76714;SDS011;65644;44.990;20.288;2023-09-19T04:10:10;6.32;;;3.80;;
76714;SDS011;65644;44.990;20.288;2023-09-19T04:12:37;7.35;;;4.20;;
76714;SDS011;65644;44.990;20.288;2023-09-19T04:15:07;6.72;;;3.95;;
76714;SDS011;65644;44.990;20.288;2023-09-19T04:17:33;5.50;;;3.90;;
76714;SDS011;65644;44.990;20.288;2023-09-19T04:19:59;5.75;;;3.65;;
76714;SDS011;65644;44.990;20.288;2023-09-19T04:22:26;6.13;;;4.32;;
76714;SDS011;65644;44.990;20.288;2023-09-19T04:24:52;6.13;;;4.10;;
76714;SDS011;65644;44.990;20.288;2023-09-19T04:27:18;5.95;;;4.20;;
76714;SDS011;65644;44.990;20.288;2023-09-19T04:29:44;6.22;;;3.88;;
76714;SDS011;65644;44.990;20.288;2023-09-19T04:32:10;7.72;;;4.10;;
76714;SDS011;65644;44.990;20.288;2023-09-19T04:34:38;4.45;;;3.78;;
76714;SDS011;65644;44.990;20.288;2023-09-19T04:37:04;6.13;;;3.95;;
76714;SDS011;65644;44.990;20.288;2023-09-19T04:39:30;5.00;;;4.03;;
76714;SDS011;65644;44.990;20.288;2023-09-19T04:41:56;4.22;;;3.83;;
76714;SDS011;65644;44.990;20.288;2023-09-19T04:44:23;4.35;;;3.85;;
76714;SDS011;65644;44.990;20.288;2023-09-19T04:46:49;5.55;;;3.80;;
76714;SDS011;65644;44.990;20.288;2023-09-19T04:49:16;4.95;;;3.90;;
76714;SDS011;65644;44.990;20.288;2023-09-19T04:51:43;5.15;;;4.13;;
76714;SDS011;65644;44.990;20.288;2023-09-19T04:54:11;5.55;;;3.85;;
76714;SDS011;65644;44.990;20.288;2023-09-19T04:56:38;6.65;;;4.47;;
76714;SDS011;65644;44.990;20.288;2023-09-19T04:59:05;5.40;;;4.32;;
76714;SDS011;65644;44.990;20.288;2023-09-19T05:01:31;6.68;;;4.50;;
76714;SDS011;65644;44.990;20.288;2023-09-19T05:03:57;6.63;;;4.38;;
76714;SDS011;65644;44.990;20.288;2023-09-19T05:06:23;7.68;;;4.80;;
76714;SDS011;65644;44.990;20.288;2023-09-19T05:08:51;8.30;;;4.57;;
76714;SDS011;65644;44.990;20.288;2023-09-19T05:11:18;7.60;;;3.90;;
76714;SDS011;65644;44.990;20.288;2023-09-19T05:13:45;5.35;;;4.40;;
76714;SDS011;65644;44.990;20.288;2023-09-19T05:16:11;5.95;;;4.32;;
76714;SDS011;65644;44.990;20.288;2023-09-19T05:18:37;7.18;;;4.53;;
76714;SDS011;65644;44.990;20.288;2023-09-19T05:21:03;7.00;;;4.78;;
76714;SDS011;65644;44.990;20.288;2023-09-19T05:23:29;5.88;;;4.45;;
76714;SDS011;65644;44.990;20.288;2023-09-19T05:25:56;4.80;;;4.22;;
76714;SDS011;65644;44.990;20.288;2023-09-19T05:28:25;8.70;;;4.68;;
76714;SDS011;65644;44.990;20.288;2023-09-19T05:30:52;5.80;;;4.50;;
76714;SDS011;65644;44.990;20.288;2023-09-19T05:33:18;5.35;;;4.28;;
76714;SDS011;65644;44.990;20.288;2023-09-19T05:35:44;7.18;;;5.40;;
76714;SDS011;65644;44.990;20.288;2023-09-19T05:38:12;5.47;;;4.63;;
76714;SDS011;65644;44.990;20.288;2023-09-19T05:40:38;8.27;;;4.65;;
76714;SDS011;65644;44.990;20.288;2023-09-19T05:43:07;5.75;;;5.05;;
76714;SDS011;65644;44.990;20.288;2023-09-19T05:45:33;6.35;;;4.55;;
76714;SDS011;65644;44.990;20.288;2023-09-19T05:48:09;6.97;;;4.78;;
76714;SDS011;65644;44.990;20.288;2023-09-19T05:50:36;6.57;;;5.13;;
76714;SDS011;65644;44.990;20.288;2023-09-19T05:53:03;4.93;;;4.35;;
76714;SDS011;65644;44.990;20.288;2023-09-19T05:55:30;6.97;;;5.03;;
76714;SDS011;65644;44.990;20.288;2023-09-19T05:57:56;5.50;;;4.50;;
76714;SDS011;65644;44.990;20.288;2023-09-19T06:00:23;7.40;;;4.88;;
76714;SDS011;65644;44.990;20.288;2023-09-19T06:02:52;7.28;;;4.88;;
76714;SDS011;65644;44.990;20.288;2023-09-19T06:05:18;9.02;;;5.00;;
76714;SDS011;65644;44.990;20.288;2023-09-19T06:07:45;8.63;;;5.32;;
76714;SDS011;65644;44.990;20.288;2023-09-19T06:10:12;6.15;;;4.57;;
76714;SDS011;65644;44.990;20.288;2023-09-19T06:12:41;8.38;;;4.80;;
76714;SDS011;65644;44.990;20.288;2023-09-19T06:15:11;7.65;;;4.47;;
76714;SDS011;65644;44.990;20.288;2023-09-19T06:20:34;5.80;;;4.75;;
76714;SDS011;65644;44.990;20.288;2023-09-19T06:23:02;7.18;;;4.45;;
76714;SDS011;65644;44.990;20.288;2023-09-19T06:25:28;6.68;;;4.78;;
76714;SDS011;65644;44.990;20.288;2023-09-19T06:27:54;7.18;;;4.88;;
76714;SDS011;65644;44.990;20.288;2023-09-19T06:30:21;6.78;;;4.45;;
76714;SDS011;65644;44.990;20.288;2023-09-19T06:32:49;7.82;;;4.78;;
76714;SDS011;65644;44.990;20.288;2023-09-19T06:35:15;7.47;;;4.93;;
76714;SDS011;65644;44.990;20.288;2023-09-19T06:37:42;5.45;;;4.95;;
76714;SDS011;65644;44.990;20.288;2023-09-19T06:40:09;6.85;;;4.60;;
76714;SDS011;65644;44.990;20.288;2023-09-19T06:45:10;10.65;;;5.10;;
76714;SDS011;65644;44.990;20.288;2023-09-19T06:47:38;8.15;;;4.57;;
76714;SDS011;65644;44.990;20.288;2023-09-19T06:50:04;5.68;;;5.15;;
76714;SDS011;65644;44.990;20.288;2023-09-19T06:52:31;6.38;;;4.50;;
76714;SDS011;65644;44.990;20.288;2023-09-19T06:54:58;9.35;;;4.97;;
76714;SDS011;65644;44.990;20.288;2023-09-19T06:57:24;9.77;;;5.07;;
76714;SDS011;65644;44.990;20.288;2023-09-19T06:59:50;7.78;;;4.78;;
76714;SDS011;65644;44.990;20.288;2023-09-19T07:02:16;5.60;;;5.00;;
76714;SDS011;65644;44.990;20.288;2023-09-19T07:04:42;6.57;;;4.95;;
76714;SDS011;65644;44.990;20.288;2023-09-19T07:07:08;10.60;;;5.80;;
76714;SDS011;65644;44.990;20.288;2023-09-19T07:09:35;6.05;;;5.07;;
76714;SDS011;65644;44.990;20.288;2023-09-19T07:12:02;6.05;;;4.88;;
76714;SDS011;65644;44.990;20.288;2023-09-19T07:14:28;7.43;;;4.88;;
76714;SDS011;65644;44.990;20.288;2023-09-19T07:16:55;6.05;;;5.15;;
76714;SDS011;65644;44.990;20.288;2023-09-19T07:19:21;8.77;;;5.30;;
76714;SDS011;65644;44.990;20.288;2023-09-19T07:21:47;6.80;;;5.43;;
76714;SDS011;65644;44.990;20.288;2023-09-19T07:24:15;9.98;;;5.72;;
76714;SDS011;65644;44.990;20.288;2023-09-19T07:26:41;11.07;;;5.03;;
76714;SDS011;65644;44.990;20.288;2023-09-19T07:29:07;6.57;;;4.85;;
76714;SDS011;65644;44.990;20.288;2023-09-19T07:31:33;9.00;;;4.90;;
76714;SDS011;65644;44.990;20.288;2023-09-19T07:34:00;8.82;;;4.78;;
76714;SDS011;65644;44.990;20.288;2023-09-19T07:36:26;8.98;;;5.47;;
76714;SDS011;65644;44.990;20.288;2023-09-19T07:38:54;12.98;;;6.13;;
76714;SDS011;65644;44.990;20.288;2023-09-19T07:41:23;7.43;;;4.82;;
76714;SDS011;65644;44.990;20.288;2023-09-19T07:43:49;10.98;;;5.45;;
76714;SDS011;65644;44.990;20.288;2023-09-19T07:46:15;11.18;;;5.47;;
76714;SDS011;65644;44.990;20.288;2023-09-19T07:48:41;7.25;;;5.13;;
76714;SDS011;65644;44.990;20.288;2023-09-19T07:51:12;8.38;;;5.43;;
76714;SDS011;65644;44.990;20.288;2023-09-19T07:53:41;7.95;;;5.38;;
76714;SDS011;65644;44.990;20.288;2023-09-19T07:56:08;6.28;;;5.13;;
76714;SDS011;65644;44.990;20.288;2023-09-19T07:58:34;7.78;;;4.22;;
76714;SDS011;65644;44.990;20.288;2023-09-19T08:01:08;9.45;;;4.80;;
76714;SDS011;65644;44.990;20.288;2023-09-19T08:03:35;9.70;;;4.93;;
76714;SDS011;65644;44.990;20.288;2023-09-19T08:06:05;8.45;;;4.72;;
76714;SDS011;65644;44.990;20.288;2023-09-19T08:08:32;9.82;;;4.85;;
76714;SDS011;65644;44.990;20.288;2023-09-19T08:11:02;9.02;;;5.10;;
76714;SDS011;65644;44.990;20.288;2023-09-19T08:13:35;9.00;;;5.07;;
76714;SDS011;65644;44.990;20.288;2023-09-19T08:16:03;11.02;;;5.38;;
76714;SDS011;65644;44.990;20.288;2023-09-19T08:18:29;7.78;;;4.47;;
76714;SDS011;65644;44.990;20.288;2023-09-19T08:20:55;9.25;;;5.10;;
76714;SDS011;65644;44.990;20.288;2023-09-19T08:23:23;8.00;;;4.85;;
76714;SDS011;65644;44.990;20.288;2023-09-19T08:25:49;9.77;;;5.00;;
76714;SDS011;65644;44.990;20.288;2023-09-19T08:28:15;8.70;;;4.55;;
76714;SDS011;65644;44.990;20.288;2023-09-19T08:30:49;8.73;;;4.78;;
76714;SDS011;65644;44.990;20.288;2023-09-19T08:33:15;7.68;;;4.43;;
76714;SDS011;65644;44.990;20.288;2023-09-19T08:35:42;8.07;;;4.53;;
76714;SDS011;65644;44.990;20.288;2023-09-19T08:38:09;11.75;;;4.80;;
76714;SDS011;65644;44.990;20.288;2023-09-19T08:40:39;7.18;;;4.57;;
76714;SDS011;65644;44.990;20.288;2023-09-19T08:43:06;8.13;;;4.75;;
76714;SDS011;65644;44.990;20.288;2023-09-19T08:45:33;10.10;;;5.05;;
76714;SDS011;65644;44.990;20.288;2023-09-19T08:50:31;9.40;;;4.93;;
76714;SDS011;65644;44.990;20.288;2023-09-19T08:53:02;7.40;;;4.75;;
76714;SDS011;65644;44.990;20.288;2023-09-19T08:55:30;9.57;;;5.07;;
76714;SDS011;65644;44.990;20.288;2023-09-19T08:58:03;8.57;;;5.57;;
76714;SDS011;65644;44.990;20.288;2023-09-19T09:00:29;8.55;;;4.88;;
76714;SDS011;65644;44.990;20.288;2023-09-19T09:02:57;13.63;;;5.07;;
76714;SDS011;65644;44.990;20.288;2023-09-19T09:05:24;8.40;;;4.75;;
76714;SDS011;65644;44.990;20.288;2023-09-19T09:07:51;10.30;;;4.60;;
76714;SDS011;65644;44.990;20.288;2023-09-19T09:10:19;8.52;;;4.90;;
76714;SDS011;65644;44.990;20.288;2023-09-19T09:12:52;12.50;;;5.15;;
76714;SDS011;65644;44.990;20.288;2023-09-19T09:15:20;11.57;;;5.43;;
76714;SDS011;65644;44.990;20.288;2023-09-19T09:17:48;9.32;;;5.20;;
76714;SDS011;65644;44.990;20.288;2023-09-19T09:20:15;11.15;;;6.10;;
76714;SDS011;65644;44.990;20.288;2023-09-19T09:22:54;11.45;;;5.32;;
76714;SDS011;65644;44.990;20.288;2023-09-19T09:25:20;9.40;;;5.38;;
76714;SDS011;65644;44.990;20.288;2023-09-19T09:27:59;10.45;;;5.18;;
76714;SDS011;65644;44.990;20.288;2023-09-19T09:30:34;12.68;;;5.70;;
76714;SDS011;65644;44.990;20.288;2023-09-19T09:33:08;8.95;;;4.88;;
76714;SDS011;65644;44.990;20.288;2023-09-19T09:35:36;14.32;;;5.90;;
76714;SDS011;65644;44.990;20.288;2023-09-19T09:38:04;13.52;;;5.10;;
76714;SDS011;65644;44.990;20.288;2023-09-19T09:41:06;8.63;;;5.05;;
76714;SDS011;65644;44.990;20.288;2023-09-19T09:51:39;13.32;;;5.32;;
76714;SDS011;65644;44.990;20.288;2023-09-19T09:54:14;7.45;;;5.47;;
76714;SDS011;65644;44.990;20.288;2023-09-19T10:02:11;11.02;;;4.97;;
76714;SDS011;65644;44.990;20.288;2023-09-19T10:04:39;11.70;;;5.63;;
76714;SDS011;65644;44.990;20.288;2023-09-19T10:07:26;9.63;;;5.22;;
76714;SDS011;65644;44.990;20.288;2023-09-19T10:09:55;10.27;;;5.05;;
76714;SDS011;65644;44.990;20.288;2023-09-19T10:12:35;11.30;;;4.97;;
76714;SDS011;65644;44.990;20.288;2023-09-19T10:15:03;9.25;;;5.75;;
76714;SDS011;65644;44.990;20.288;2023-09-19T10:17:32;10.55;;;4.88;;
76714;SDS011;65644;44.990;20.288;2023-09-19T10:20:00;12.30;;;5.72;;
76714;SDS011;65644;44.990;20.288;2023-09-19T10:22:35;13.55;;;5.43;;
76714;SDS011;65644;44.990;20.288;2023-09-19T10:25:02;10.27;;;4.90;;
76714;SDS011;65644;44.990;20.288;2023-09-19T10:27:32;14.73;;;4.63;;
76714;SDS011;65644;44.990;20.288;2023-09-19T10:30:02;11.57;;;5.90;;
76714;SDS011;65644;44.990;20.288;2023-09-19T10:32:32;15.73;;;5.50;;
76714;SDS011;65644;44.990;20.288;2023-09-19T10:35:01;7.70;;;5.07;;
76714;SDS011;65644;44.990;20.288;2023-09-19T10:37:30;14.52;;;5.35;;
76714;SDS011;65644;44.990;20.288;2023-09-19T10:39:57;13.77;;;5.70;;
76714;SDS011;65644;44.990;20.288;2023-09-19T10:42:24;13.25;;;5.10;;
76714;SDS011;65644;44.990;20.288;2023-09-19T10:44:54;10.55;;;5.28;;
76714;SDS011;65644;44.990;20.288;2023-09-19T10:47:20;15.18;;;5.47;;
76714;SDS011;65644;44.990;20.288;2023-09-19T10:49:50;15.68;;;5.68;;
76714;SDS011;65644;44.990;20.288;2023-09-19T10:52:19;13.70;;;5.95;;
76714;SDS011;65644;44.990;20.288;2023-09-19T10:54:47;10.35;;;6.07;;
76714;SDS011;65644;44.990;20.288;2023-09-19T10:57:21;13.45;;;4.63;;
76714;SDS011;65644;44.990;20.288;2023-09-19T11:00:05;13.13;;;5.13;;
76714;SDS011;65644;44.990;20.288;2023-09-19T11:05:32;11.15;;;4.47;;
76714;SDS011;65644;44.990;20.288;2023-09-19T11:07:59;17.13;;;5.43;;
76714;SDS011;65644;44.990;20.288;2023-09-19T11:13:23;17.20;;;4.60;;
76714;SDS011;65644;44.990;20.288;2023-09-19T11:26:57;13.52;;;5.60;;
76714;SDS011;65644;44.990;20.288;2023-09-19T11:29:34;10.63;;;5.82;;
76714;SDS011;65644;44.990;20.288;2023-09-19T11:32:01;14.75;;;5.75;;
76714;SDS011;65644;44.990;20.288;2023-09-19T11:37:03;22.52;;;5.63;;
76714;SDS011;65644;44.990;20.288;2023-09-19T11:39:30;20.63;;;5.38;;
76714;SDS011;65644;44.990;20.288;2023-09-19T11:41:56;22.23;;;5.10;;
76714;SDS011;65644;44.990;20.288;2023-09-19T11:49:31;19.63;;;5.28;;
76714;SDS011;65644;44.990;20.288;2023-09-19T11:52:01;18.10;;;5.55;;
76714;SDS011;65644;44.990;20.288;2023-09-19T11:54:31;20.85;;;5.47;;
76714;SDS011;65644;44.990;20.288;2023-09-19T11:56:58;24.42;;;7.18;;
76714;SDS011;65644;44.990;20.288;2023-09-19T11:59:25;35.08;;;11.45;;
76714;SDS011;65644;44.990;20.288;2023-09-19T12:01:53;22.23;;;6.30;;
76714;SDS011;65644;44.990;20.288;2023-09-19T12:04:55;19.65;;;6.28;;
76714;SDS011;65644;44.990;20.288;2023-09-19T12:07:15;18.20;;;5.68;;
76714;SDS011;65644;44.990;20.288;2023-09-19T12:09:42;20.13;;;5.43;;
76714;SDS011;65644;44.990;20.288;2023-09-19T12:12:24;16.70;;;5.60;;
76714;SDS011;65644;44.990;20.288;2023-09-19T12:14:55;14.52;;;5.38;;
76714;SDS011;65644;44.990;20.288;2023-09-19T12:17:24;18.75;;;5.45;;
76714;SDS011;65644;44.990;20.288;2023-09-19T12:19:50;18.73;;;5.30;;
76714;SDS011;65644;44.990;20.288;2023-09-19T12:22:17;16.60;;;4.43;;
76714;SDS011;65644;44.990;20.288;2023-09-19T12:24:45;23.25;;;5.05;;
76714;SDS011;65644;44.990;20.288;2023-09-19T12:27:12;13.50;;;4.38;;
76714;SDS011;65644;44.990;20.288;2023-09-19T12:29:45;18.83;;;4.25;;
76714;SDS011;65644;44.990;20.288;2023-09-19T12:32:14;16.98;;;5.03;;
76714;SDS011;65644;44.990;20.288;2023-09-19T12:34:41;13.57;;;4.57;;
76714;SDS011;65644;44.990;20.288;2023-09-19T12:37:08;16.00;;;4.45;;
76714;SDS011;65644;44.990;20.288;2023-09-19T12:39:45;15.77;;;4.00;;
76714;SDS011;65644;44.990;20.288;2023-09-19T12:42:14;19.27;;;4.07;;
76714;SDS011;65644;44.990;20.288;2023-09-19T12:44:43;10.52;;;3.90;;
76714;SDS011;65644;44.990;20.288;2023-09-19T12:47:10;12.68;;;4.47;;
76714;SDS011;65644;44.990;20.288;2023-09-19T12:49:41;12.27;;;3.47;;
76714;SDS011;65644;44.990;20.288;2023-09-19T12:52:22;18.20;;;3.17;;
76714;SDS011;65644;44.990;20.288;2023-09-19T12:54:51;21.15;;;3.10;;
76714;SDS011;65644;44.990;20.288;2023-09-19T12:57:23;19.98;;;3.28;;
76714;SDS011;65644;44.990;20.288;2023-09-19T12:59:52;14.13;;;3.42;;
76714;SDS011;65644;44.990;20.288;2023-09-19T13:02:18;18.85;;;3.75;;
76714;SDS011;65644;44.990;20.288;2023-09-19T13:04:52;9.18;;;2.40;;
76714;SDS011;65644;44.990;20.288;2023-09-19T13:10:04;14.55;;;3.70;;
76714;SDS011;65644;44.990;20.288;2023-09-19T13:12:35;10.48;;;2.45;;
76714;SDS011;65644;44.990;20.288;2023-09-19T13:15:11;10.60;;;2.40;;
76714;SDS011;65644;44.990;20.288;2023-09-19T13:17:48;20.10;;;2.90;;
76714;SDS011;65644;44.990;20.288;2023-09-19T13:20:21;15.40;;;3.00;;
76714;SDS011;65644;44.990;20.288;2023-09-19T13:22:52;12.68;;;2.92;;
76714;SDS011;65644;44.990;20.288;2023-09-19T13:25:20;9.85;;;2.50;;
76714;SDS011;65644;44.990;20.288;2023-09-19T13:27:47;15.05;;;3.83;;
76714;SDS011;65644;44.990;20.288;2023-09-19T13:30:16;17.73;;;3.00;;
76714;SDS011;65644;44.990;20.288;2023-09-19T13:32:42;11.15;;;2.58;;
76714;SDS011;65644;44.990;20.288;2023-09-19T13:35:09;9.38;;;2.42;;
76714;SDS011;65644;44.990;20.288;2023-09-19T13:37:35;16.08;;;2.78;;
76714;SDS011;65644;44.990;20.288;2023-09-19T13:40:06;12.77;;;2.85;;
76714;SDS011;65644;44.990;20.288;2023-09-19T13:42:32;9.55;;;2.72;;
76714;SDS011;65644;44.990;20.288;2023-09-19T13:44:58;9.52;;;2.85;;
76714;SDS011;65644;44.990;20.288;2023-09-19T13:47:24;12.02;;;2.78;;
76714;SDS011;65644;44.990;20.288;2023-09-19T13:49:52;9.30;;;2.40;;
76714;SDS011;65644;44.990;20.288;2023-09-19T13:52:18;10.82;;;2.35;;
76714;SDS011;65644;44.990;20.288;2023-09-19T13:54:44;12.50;;;3.28;;
76714;SDS011;65644;44.990;20.288;2023-09-19T13:57:10;12.52;;;2.80;;
76714;SDS011;65644;44.990;20.288;2023-09-19T13:59:37;12.40;;;2.45;;
76714;SDS011;65644;44.990;20.288;2023-09-19T14:02:03;13.77;;;2.25;;
76714;SDS011;65644;44.990;20.288;2023-09-19T14:04:30;14.52;;;2.97;;
76714;SDS011;65644;44.990;20.288;2023-09-19T14:06:57;10.88;;;2.35;;
76714;SDS011;65644;44.990;20.288;2023-09-19T14:09:23;12.70;;;2.70;;
76714;SDS011;65644;44.990;20.288;2023-09-19T14:11:50;17.40;;;2.85;;
76714;SDS011;65644;44.990;20.288;2023-09-19T14:14:18;8.38;;;2.70;;
76714;SDS011;65644;44.990;20.288;2023-09-19T14:16:45;7.95;;;1.90;;
76714;SDS011;65644;44.990;20.288;2023-09-19T14:19:11;7.50;;;2.47;;
76714;SDS011;65644;44.990;20.288;2023-09-19T14:21:38;11.43;;;2.15;;
76714;SDS011;65644;44.990;20.288;2023-09-19T14:24:05;13.23;;;2.38;;
76714;SDS011;65644;44.990;20.288;2023-09-19T14:26:34;11.10;;;2.20;;
76714;SDS011;65644;44.990;20.288;2023-09-19T14:29:00;13.30;;;1.98;;
76714;SDS011;65644;44.990;20.288;2023-09-19T14:31:26;5.70;;;1.60;;
76714;SDS011;65644;44.990;20.288;2023-09-19T14:33:53;11.80;;;1.70;;
76714;SDS011;65644;44.990;20.288;2023-09-19T14:36:20;10.30;;;2.03;;
76714;SDS011;65644;44.990;20.288;2023-09-19T14:38:46;13.40;;;2.30;;
76714;SDS011;65644;44.990;20.288;2023-09-19T14:41:13;11.07;;;1.95;;
76714;SDS011;65644;44.990;20.288;2023-09-19T14:43:39;7.07;;;1.58;;
76714;SDS011;65644;44.990;20.288;2023-09-19T14:46:05;8.00;;;1.75;;
76714;SDS011;65644;44.990;20.288;2023-09-19T14:48:37;9.50;;;2.00;;
76714;SDS011;65644;44.990;20.288;2023-09-19T14:51:04;9.02;;;1.80;;
76714;SDS011;65644;44.990;20.288;2023-09-19T14:53:31;9.00;;;1.50;;
76714;SDS011;65644;44.990;20.288;2023-09-19T14:56:00;7.32;;;1.70;;
76714;SDS011;65644;44.990;20.288;2023-09-19T14:58:28;11.13;;;1.85;;
76714;SDS011;65644;44.990;20.288;2023-09-19T15:01:16;9.05;;;2.55;;
76714;SDS011;65644;44.990;20.288;2023-09-19T15:03:41;10.77;;;2.10;;
76714;SDS011;65644;44.990;20.288;2023-09-19T15:06:08;7.30;;;1.98;;
76714;SDS011;65644;44.990;20.288;2023-09-19T15:08:36;14.60;;;1.83;;
76714;SDS011;65644;44.990;20.288;2023-09-19T15:11:05;11.45;;;2.80;;
76714;SDS011;65644;44.990;20.288;2023-09-19T15:13:32;11.15;;;1.90;;
76714;SDS011;65644;44.990;20.288;2023-09-19T15:16:01;9.95;;;1.35;;
76714;SDS011;65644;44.990;20.288;2023-09-19T15:18:28;10.05;;;1.60;;
76714;SDS011;65644;44.990;20.288;2023-09-19T15:20:55;6.43;;;1.30;;
76714;SDS011;65644;44.990;20.288;2023-09-19T15:23:21;7.70;;;1.50;;
76714;SDS011;65644;44.990;20.288;2023-09-19T15:25:50;8.27;;;1.25;;
76714;SDS011;65644;44.990;20.288;2023-09-19T15:28:18;10.10;;;1.90;;
76714;SDS011;65644;44.990;20.288;2023-09-19T15:30:47;8.05;;;1.40;;
76714;SDS011;65644;44.990;20.288;2023-09-19T15:33:13;9.88;;;1.50;;
76714;SDS011;65644;44.990;20.288;2023-09-19T15:35:40;3.47;;;0.93;;
76714;SDS011;65644;44.990;20.288;2023-09-19T15:38:07;7.38;;;1.10;;
76714;SDS011;65644;44.990;20.288;2023-09-19T15:40:33;8.02;;;1.48;;
76714;SDS011;65644;44.990;20.288;2023-09-19T15:42:59;5.90;;;1.10;;
76714;SDS011;65644;44.990;20.288;2023-09-19T15:45:25;11.65;;;1.42;;